Date,TemperatureHighF,TemperatureAvgF,TemperatureLowF,DewpointHighF,DewpointAvgF,DewpointLowF,HumidityHigh,HumidityAvg,HumidityLow,PressureMaxIn,PressureMinIn,WindSpeedMaxMPH,WindSpeedAvgMPH,GustSpeedMaxMPH,PrecipitationSumIn
2013-1-1,48,43,36,46,40,28,99,91,68,30.26,30.04,3,0,7,0.53
2013-1-2,48,43,39,44,40,37,99,90,68,30.19,30.00,5,1,10,0.05
2013-1-3,46,37,25,38,32,23,99,83,44,30.37,30.15,6,0,8,0.00
2013-1-4,45,33,24,22,17,9,86,55,26,30.47,30.36,8,2,19,0.00
2013-1-5,50,36,21,34,22,7,95,64,18,30.51,30.35,7,1,12,0.01
2013-1-6,52,42,34,41,33,24,96,72,35,30.33,30.13,12,3,18,0.01
2013-1-7,48,34,23,28,24,19,95,73,32,30.53,30.26,5,1,11,0.00
2013-1-8,49,35,21,44,33,20,97,92,77,30.59,30.50,7,0,14,0.00
2013-1-9,56,48,42,54,47,41,99,97,89,30.57,30.49,4,0,9,0.00
2013-1-10,60,50,40,53,47,40,100,90,68,30.58,30.38,9,2,18,0.13
2013-1-11,57,54,51,56,53,50,100,98,95,30.38,30.20,7,1,22,1.04
2013-1-12,66,59,54,60,56,54,100,91,74,30.24,30.13,7,2,18,0.07
2013-1-13,60,58,57,57,56,54,96,90,84,30.16,30.09,16,4,31,0.58
2013-1-14,61,59,56,59,57,56,99,95,92,30.14,30.07,13,3,23,2.22
2013-1-15,58,55,52,57,54,52,100,97,93,30.13,30.03,9,2,15,2.45
2013-1-16,60,54,50,56,53,50,100,96,77,30.05,29.96,9,0,13,0.90
2013-1-17,51,46,34,51,44,24,100,94,64,30.23,29.72,8,1,16,2.04
2013-1-18,48,34,26,31,23,13,99,69,31,30.61,30.24,8,1,15,0.00
2013-1-19,51,34,22,37,24,10,99,76,21,30.59,30.34,7,1,11,0.00
2013-1-20,54,42,27,33,25,14,97,55,27,30.34,30.17,15,3,22,0.00
2013-1-21,48,35,24,27,21,12,97,61,32,30.21,30.11,17,4,31,0.00
2013-1-22,35,28,21,13,9,4,55,45,29,30.34,30.08,12,4,27,0.00
2013-1-23,46,34,26,28,20,11,77,59,43,30.43,30.19,15,3,24,0.00
2013-1-24,44,37,24,32,16,-6,76,48,13,30.47,30.10,20,4,29,0.00
2013-1-25,45,30,19,42,24,5,99,79,51,30.50,30.23,10,2,19,0.12
2013-1-26,50,40,26,38,22,12,95,56,22,30.41,30.21,15,3,21,0.00
2013-1-27,46,33,21,34,28,20,98,82,57,30.60,30.41,7,1,12,0.00
2013-1-28,55,45,35,49,41,31,98,88,76,30.57,30.36,10,1,20,0.00
2013-1-29,61,50,35,57,48,35,99,93,74,30.37,30.11,7,1,18,0.28
2013-1-30,61,54,41,58,53,37,98,93,82,30.08,29.52,18,5,33,3.32
2013-1-31,41,32,26,37,22,17,93,66,46,30.16,29.58,15,6,34,0.01
2013-2-1,37,28,18,29,11,0,89,52,25,30.46,30.07,24,5,33,0.00
2013-2-2,42,28,17,32,21,8,97,76,35,30.48,30.18,14,1,19,0.00
2013-2-3,39,33,30,31,26,21,94,75,57,30.17,30.01,20,5,34,0.00
2013-2-4,47,34,24,29,23,16,89,66,34,30.25,30.11,11,1,14,0.00
2013-2-5,53,39,30,39,31,24,95,75,41,30.14,30.05,11,1,20,0.00
2013-2-6,57,40,29,37,27,17,98,68,21,30.34,30.12,11,1,16,0.00
2013-2-7,44,38,28,41,35,27,97,91,70,30.35,30.08,7,1,14,0.28
2013-2-8,49,41,34,45,36,24,99,82,56,30.18,30.01,12,2,22,0.01
2013-2-9,56,38,24,29,22,9,91,61,18,30.45,30.17,11,1,11,0.00
2013-2-10,46,37,27,45,31,21,99,79,39,30.49,30.30,19,2,19,0.86
2013-2-11,55,49,45,53,41,15,100,79,28,30.29,30.08,10,2,19,0.42
2013-2-12,57,44,37,40,26,9,97,55,15,30.15,29.97,8,1,15,0.10
2013-2-13,47,39,32,42,36,28,99,88,68,29.97,29.75,11,2,25,0.05
2013-2-14,50,36,27,33,26,12,93,70,23,30.18,29.98,12,2,17,0.00
2013-2-15,52,37,22,37,28,22,99,74,38,30.24,30.08,10,2,19,0.00
2013-2-16,35,28,20,30,20,8,86,71,50,30.11,29.92,15,3,26,0.00
2013-2-17,34,24,16,16,8,3,78,52,29,30.42,30.11,20,5,31,0.00
2013-2-18,49,34,16,25,20,14,93,63,35,30.51,30.32,10,2,14,0.00
2013-2-19,47,38,32,40,25,12,98,63,36,30.31,30.00,16,4,30,0.32
2013-2-20,47,36,27,21,6,-6,74,32,14,30.22,30.11,19,4,28,0.00
2013-2-21,58,40,24,36,22,9,96,57,18,30.30,30.18,8,1,13,0.36
2013-2-22,42,38,33,42,37,31,99,96,91,30.34,30.18,6,1,12,0.56
2013-2-23,53,46,41,52,46,41,100,99,95,30.19,29.89,4,0,5,0.36
2013-2-24,57,41,27,40,30,19,100,70,24,30.13,29.93,14,2,17,0.01
2013-2-25,46,36,26,35,28,23,97,76,46,30.21,30.08,8,2,15,0.09
2013-2-26,44,39,36,43,38,32,98,92,77,30.06,29.66,13,4,17,2.24
2013-2-27,52,41,33,34,30,24,87,68,36,29.89,29.76,12,4,20,0.01
2013-2-28,38,32,28,29,24,22,81,73,65,30.01,29.80,12,3,20,0.00
2013-3-1,39,32,27,28,25,23,86,76,62,30.06,29.99,10,2,14,0.00
2013-3-2,35,30,23,27,24,17,92,77,59,30.05,29.96,9,2,19,0.01
2013-3-3,37,26,20,18,14,13,79,64,38,30.13,30.03,11,3,18,0.00
2013-3-4,52,35,22,26,16,7,83,52,19,30.26,30.11,10,3,17,0.00
2013-3-5,49,39,29,48,37,23,99,90,72,30.21,29.77,18,2,30,0.78
2013-3-6,32,28,23,25,22,17,87,79,68,30.26,29.77,25,6,35,0.00
2013-3-7,56,36,24,32,25,17,96,68,22,30.36,30.24,9,2,16,0.00
2013-3-8,59,38,22,31,22,8,98,64,18,30.42,30.33,9,1,12,0.00
2013-3-9,58,40,24,34,28,23,97,67,34,30.44,30.34,8,1,11,0.00
2013-3-10,58,44,29,35,31,27,95,65,36,30.39,30.27,10,2,16,0.00
2013-3-11,52,48,42,50,46,36,99,94,61,30.28,29.89,11,4,22,1.39
2013-3-12,58,48,36,49,36,25,100,68,32,30.09,29.83,13,2,18,0.31
2013-3-13,41,35,26,27,21,16,79,59,39,30.25,30.07,23,4,29,0.00
2013-3-14,47,34,22,16,13,8,71,45,22,30.40,30.25,11,3,20,0.00
2013-3-15,63,49,35,41,32,16,74,53,31,30.31,30.04,12,4,24,0.00
2013-3-16,70,60,50,44,41,38,70,51,37,30.04,29.84,17,4,29,0.00
2013-3-17,67,58,46,47,44,40,87,61,39,30.02,29.90,12,2,17,0.00
2013-3-18,53,46,42,47,44,41,99,94,76,30.05,29.90,6,1,22,0.62
2013-3-19,55,44,33,45,28,14,100,61,22,30.16,29.95,21,2,22,0.00
2013-3-20,49,39,31,29,12,4,91,36,19,30.18,29.94,12,3,18,0.00
2013-3-21,36,29,21,26,10,2,82,47,32,30.07,29.84,18,4,28,0.00
2013-3-22,44,33,21,29,19,8,79,60,27,30.18,30.08,7,1,11,0.00
2013-3-23,58,44,35,49,40,27,98,87,69,30.16,29.95,7,1,8,0.05
2013-3-24,48,42,37,45,41,36,99,95,84,29.99,29.58,7,1,10,1.05
2013-3-25,38,29,25,35,23,19,91,77,67,30.03,29.62,18,5,31,0.00
2013-3-26,35,28,24,25,21,20,85,75,59,30.33,30.02,22,4,28,0.00
2013-3-27,46,34,24,23,20,16,80,60,34,30.40,30.30,11,3,19,0.00
2013-3-28,51,35,23,23,18,5,91,58,16,30.44,30.33,14,2,24,0.00
2013-3-29,50,36,21,38,27,17,96,77,27,30.47,30.37,10,1,16,0.07
2013-3-30,59,46,39,42,39,36,98,80,42,30.37,30.15,10,1,16,0.10
2013-3-31,60,52,44,50,47,42,99,86,65,30.15,29.92,10,2,16,0.42
2013-4-1,59,51,37,49,39,34,98,69,42,30.05,29.90,14,3,20,0.00
2013-4-2,58,47,36,34,20,4,78,41,13,30.19,30.04,11,3,23,0.00
2013-4-3,56,46,40,29,26,23,62,47,31,30.31,30.17,10,2,13,0.03
2013-4-4,45,37,32,38,32,26,97,83,47,30.30,30.05,12,2,15,0.71
2013-4-5,60,46,37,41,36,28,98,74,31,30.18,30.02,10,2,17,0.00
2013-4-6,61,46,29,37,32,29,98,66,33,30.32,30.18,9,2,14,0.00
2013-4-7,63,50,34,45,39,31,92,69,47,30.30,30.20,11,2,20,0.00
2013-4-8,67,53,39,52,45,38,98,78,51,30.25,30.17,13,2,23,0.00
2013-4-9,75,58,41,55,49,41,99,76,46,30.28,30.19,7,1,15,0.00
2013-4-10,78,61,44,56,51,43,99,73,39,30.22,30.02,10,2,15,0.06
2013-4-11,69,62,54,62,55,51,97,79,55,30.03,29.73,10,2,23,2.52
2013-4-12,67,60,48,57,45,31,98,63,30,29.90,29.66,18,4,25,1.35
2013-4-13,68,54,42,39,33,24,82,50,20,30.11,29.88,13,3,21,0.04
2013-4-14,63,49,35,48,40,34,97,76,40,30.19,30.07,11,2,17,0.39
2013-4-15,66,56,49,57,53,48,99,90,68,30.26,30.04,7,2,10,0.17
2013-4-16,71,61,55,61,56,54,98,85,60,30.33,30.24,9,2,12,0.01
2013-4-17,75,59,51,61,56,51,99,91,58,30.31,30.18,7,1,12,1.30
2013-4-18,68,62,55,59,56,54,99,84,65,30.18,29.99,14,4,26,0.02
2013-4-19,62,57,40,60,53,33,96,86,48,29.99,29.76,12,4,26,2.16
2013-4-20,59,44,34,37,27,18,92,56,21,30.37,29.94,8,2,17,0.02
2013-4-21,58,44,30,38,32,25,98,67,37,30.52,30.38,12,2,14,0.06
2013-4-22,61,48,38,41,38,34,94,69,37,30.49,30.27,8,2,14,0.04
2013-4-23,66,49,30,45,38,30,98,71,41,30.35,30.21,8,2,13,0.01
2013-4-24,64,53,41,56,49,40,97,86,64,30.25,30.12,11,2,23,0.10
2013-4-25,66,53,38,54,32,9,98,57,11,30.37,30.14,12,2,16,0.00
2013-4-26,63,49,30,43,34,29,96,61,33,30.49,30.38,16,2,16,0.03
2013-4-27,52,48,46,50,47,45,98,95,82,30.48,30.32,5,0,6,0.72
2013-4-28,52,49,46,52,49,45,99,98,93,30.33,30.12,6,1,12,2.20
2013-4-29,67,57,49,56,52,46,100,86,48,30.14,30.00,10,1,13,0.07
2013-4-30,69,57,41,56,51,41,100,82,55,30.21,30.04,11,2,15,0.00
2013-5-1,63,57,53,56,51,48,92,80,60,30.29,30.20,9,3,18,0.02
2013-5-2,59,54,52,55,52,50,97,92,83,30.32,30.25,8,2,14,0.10
2013-5-3,54,51,50,52,50,47,97,94,78,30.27,30.13,11,4,20,0.28
2013-5-4,50,47,43,49,46,42,98,96,89,30.13,29.99,13,4,23,1.90
2013-5-5,49,48,46,49,47,45,99,97,95,30.04,29.88,13,4,22,5.41
2013-5-6,54,49,38,50,44,38,99,86,67,29.99,29.84,11,3,18,0.47
2013-5-7,61,47,33,52,42,33,100,86,47,30.07,29.96,5,1,9,0.12
2013-5-8,62,53,41,54,48,41,100,85,66,30.14,30.02,9,1,18,0.01
2013-5-9,75,58,43,56,48,42,100,74,35,30.20,30.11,7,1,17,0.00
2013-5-10,70,59,45,57,53,45,100,82,58,30.19,30.02,16,2,25,0.06
2013-5-11,69,60,53,57,54,52,98,82,56,30.04,29.89,11,2,16,0.11
2013-5-12,63,53,39,52,38,27,95,60,28,30.13,29.91,13,3,23,0.00
2013-5-13,61,47,37,34,29,22,89,54,24,30.29,30.13,10,2,22,0.02
2013-5-14,71,51,30,50,40,30,99,71,36,30.34,30.21,14,2,16,0.00
2013-5-15,83,66,47,54,50,46,98,62,30,30.23,30.04,11,3,18,0.07
2013-5-16,76,62,49,57,51,47,98,71,39,30.11,30.03,7,1,12,0.00
2013-5-17,74,62,50,60,54,50,99,79,52,30.17,30.09,8,1,11,0.04
2013-5-18,64,60,55,61,58,52,99,93,84,30.16,30.10,6,1,13,0.83
2013-5-19,71,64,59,63,61,59,99,91,73,30.16,30.04,6,1,11,0.41
2013-5-20,78,64,54,67,60,53,100,89,47,30.15,30.09,10,1,11,0.07
2013-5-21,80,65,55,67,61,55,100,88,45,30.11,30.02,10,1,14,0.06
2013-5-22,76,64,54,66,61,54,100,89,62,30.08,29.93,11,1,17,1.43
2013-5-23,76,65,57,61,56,51,99,75,44,29.99,29.92,11,3,19,0.39
2013-5-24,67,58,42,51,42,30,96,59,27,30.28,29.95,10,3,20,0.02
2013-5-25,74,55,36,50,38,27,91,59,19,30.38,30.27,9,2,15,0.07
2013-5-26,72,56,42,52,45,34,89,70,27,30.35,30.26,9,1,17,0.04
2013-5-27,74,60,44,58,51,41,90,74,49,30.35,30.23,7,2,12,0.06
2013-5-28,74,63,53,61,56,49,89,77,54,30.28,30.21,8,1,13,0.00
2013-5-29,76,66,55,64,57,51,89,75,54,30.27,30.21,8,2,12,0.05
2013-5-30,74,64,53,61,56,49,90,78,57,30.32,30.24,11,1,13,0.00
2013-5-31,74,65,55,63,58,51,90,79,62,30.28,30.18,9,2,13,0.06
2013-6-1,74,67,59,63,60,55,89,79,60,30.19,30.07,15,2,15,0.05
2013-6-2,72,65,61,66,62,57,89,87,82,30.11,29.93,9,1,10,1.42
2013-6-3,77,66,56,64,58,53,91,77,48,30.02,29.91,8,1,14,0.01
2013-6-4,75,64,50,64,56,46,90,77,49,30.13,30.02,6,2,11,0.00
2013-6-5,74,66,60,66,61,56,90,85,72,30.12,29.98,12,2,16,0.95
2013-6-6,72,65,58,65,60,54,91,86,77,30.02,29.83,11,1,11,0.18
2013-6-7,78,67,61,65,60,56,90,80,47,29.87,29.72,6,1,14,0.19
2013-6-8,76,66,56,65,59,52,90,79,50,30.15,29.87,8,1,10,0.10
2013-6-9,75,66,58,67,61,54,91,86,71,30.19,30.07,7,1,18,1.34
2013-6-10,73,66,59,64,60,55,91,83,56,30.08,29.97,11,2,27,1.57
2013-6-11,80,68,60,63,59,56,91,75,45,30.08,30.00,10,2,17,0.27
2013-6-12,85,71,57,71,63,54,91,78,51,30.10,30.01,7,1,15,0.08
2013-6-13,82,70,61,67,62,57,90,77,48,30.01,29.77,20,3,24,0.37
2013-6-14,76,65,53,60,53,47,91,68,38,30.11,29.85,10,2,13,0.01
2013-6-15,74,62,47,62,54,43,91,77,47,30.22,30.12,6,1,10,0.00
2013-6-16,78,66,51,64,58,48,90,77,52,30.23,30.10,6,1,12,0.00
2013-6-17,76,69,62,68,64,59,91,84,66,30.11,29.98,7,1,12,0.58
2013-6-18,74,67,61,67,63,58,92,85,73,30.00,29.86,11,1,13,0.04
2013-6-19,75,66,59,65,61,56,92,82,67,30.17,29.96,5,1,11,0.00
2013-6-20,73,64,54,64,59,51,92,84,68,30.29,30.16,10,1,16,0.00
2013-6-21,76,66,58,64,60,55,92,81,59,30.32,30.23,5,1,13,0.00
2013-6-22,78,65,55,65,58,52,92,78,51,30.30,30.18,7,1,10,0.08
2013-6-23,75,65,54,68,60,50,92,85,69,30.28,30.19,5,0,11,0.08
2013-6-24,76,68,63,70,65,60,92,87,68,30.27,30.15,5,1,9,0.65
2013-6-25,81,69,58,68,62,55,92,80,55,30.21,30.08,6,1,10,0.01
2013-6-26,81,68,59,69,63,56,92,83,61,30.11,29.97,9,1,16,0.05
2013-6-27,81,70,62,69,64,59,91,82,65,30.03,29.82,11,2,17,0.39
2013-6-28,83,72,62,67,63,58,92,75,52,29.88,29.68,8,2,16,0.00
2013-6-29,79,68,58,64,58,53,92,73,44,29.77,29.68,8,1,13,0.07
2013-6-30,77,64,53,65,58,50,92,81,50,29.88,29.77,7,1,13,0.36
2013-7-1,75,66,62,66,62,59,92,86,66,30.00,29.85,6,1,13,3.59
2013-7-2,76,68,62,67,63,59,94,86,66,30.16,29.99,6,2,17,0.85
2013-7-3,70,65,61,68,63,59,94,93,89,30.26,30.13,7,1,14,3.37
2013-7-4,70,64,61,68,62,59,95,93,90,30.26,30.20,13,2,21,3.51
2013-7-5,75,68,63,66,64,61,94,88,73,30.29,30.21,11,2,21,1.27
2013-7-6,75,67,63,69,64,60,94,90,76,30.25,30.14,9,2,15,1.53
2013-7-7,75,69,66,68,66,64,94,88,75,30.21,30.14,7,1,15,0.65
2013-7-8,82,69,61,70,64,59,94,85,57,30.25,30.15,5,1,8,0.44
2013-7-9,80,71,63,71,67,61,93,85,67,30.22,30.10,6,1,9,0.05
2013-7-10,79,71,66,71,67,63,93,88,68,30.16,29.99,7,1,9,0.32
2013-7-11,78,69,62,70,66,59,94,88,73,30.01,29.92,4,0,8,0.01
2013-7-12,79,67,60,68,62,57,93,86,53,30.04,29.93,7,1,10,0.02
2013-7-13,72,65,59,66,62,57,94,91,80,30.16,30.03,8,2,12,0.38
2013-7-14,69,67,66,67,65,64,93,93,92,30.31,30.14,13,3,20,1.34
2013-7-15,78,70,65,68,65,63,93,86,65,30.38,30.30,9,2,13,0.00
2013-7-16,82,72,63,71,66,60,92,82,60,30.37,30.28,7,1,10,0.01
2013-7-17,85,71,60,71,65,57,93,83,57,30.34,30.19,5,0,8,0.18
2013-7-18,80,71,60,70,65,58,93,83,65,30.26,30.13,8,1,11,0.00
2013-7-19,83,71,60,71,64,57,93,81,45,30.20,30.05,8,1,11,0.07
2013-7-20,80,70,63,70,65,61,93,86,63,30.10,29.98,6,1,9,0.08
2013-7-21,82,69,61,70,64,59,93,85,61,30.06,29.97,5,1,16,2.44
2013-7-22,80,70,61,68,64,59,94,83,61,30.05,29.91,7,1,14,0.02
2013-7-23,79,71,64,68,64,62,93,80,60,29.95,29.84,8,2,14,0.01
2013-7-24,83,69,60,70,64,58,94,83,52,29.91,29.83,11,1,11,0.19
2013-7-25,77,66,55,68,61,53,93,85,60,30.09,29.91,7,1,10,0.58
2013-7-26,76,66,57,67,62,55,94,88,69,30.15,30.08,10,1,10,0.47
2013-7-27,76,69,64,67,64,62,94,85,64,30.09,29.94,5,1,10,0.07
2013-7-28,78,68,58,65,60,55,94,79,47,30.09,29.96,6,1,13,0.00
2013-7-29,79,65,55,62,54,42,93,72,28,30.25,30.08,9,1,11,0.00
2013-7-30,81,67,52,68,59,50,94,80,40,30.29,30.21,5,1,9,0.01
2013-7-31,74,68,65,66,65,63,94,88,78,30.23,30.00,4,0,15,0.03
2013-8-1,81,70,61,68,64,58,94,83,57,30.03,29.94,9,1,11,0.03
2013-8-2,77,67,57,69,63,55,94,86,70,30.11,29.99,11,1,11,0.07
2013-8-3,80,69,60,66,61,57,92,77,53,30.11,30.02,6,1,11,0.07
2013-8-4,81,70,60,66,62,58,94,80,57,30.09,30.01,5,1,19,0.05
2013-8-5,78,67,57,67,62,55,94,83,64,30.11,30.03,7,1,11,0.03
2013-8-6,79,70,65,70,66,63,94,87,63,30.08,29.99,7,1,9,0.66
2013-8-7,72,68,66,68,66,64,94,92,87,30.10,30.04,4,0,9,0.42
2013-8-8,77,70,66,71,67,65,95,91,77,30.11,30.06,9,1,12,0.25
2013-8-9,79,71,65,72,67,63,95,89,69,30.15,30.07,6,0,9,0.15
2013-8-10,80,71,63,72,67,61,94,87,67,30.17,30.10,5,0,9,0.12
2013-8-11,80,70,61,71,66,59,94,86,65,30.19,30.11,5,1,10,0.14
2013-8-12,83,71,62,70,65,61,95,83,58,30.16,30.02,5,1,11,0.01
2013-8-13,79,69,63,68,64,61,95,87,64,30.04,29.89,7,1,14,0.18
2013-8-14,74,65,60,65,61,59,95,87,61,30.11,29.95,6,1,9,0.04
2013-8-15,65,59,52,60,56,51,95,89,77,30.19,30.10,6,1,10,0.00
2013-8-16,68,60,53,58,55,52,95,84,63,30.21,30.14,6,2,13,0.07
2013-8-17,66,61,58,60,57,52,95,87,70,30.22,30.16,7,1,12,0.22
2013-8-18,73,64,60,66,61,58,95,90,74,30.28,30.18,13,1,14,0.24
2013-8-19,70,65,62,67,63,60,95,93,87,30.25,30.14,5,0,7,1.79
2013-8-20,74,67,59,68,64,58,95,90,76,30.25,30.16,5,1,8,0.00
2013-8-21,72,66,62,67,64,60,95,93,81,30.29,30.20,1,0,7,0.35
2013-8-22,78,69,60,69,64,58,95,86,65,30.25,30.10,9,0,11,0.01
2013-8-23,82,68,56,69,62,54,95,83,54,30.15,30.03,5,1,8,0.39
2013-8-24,74,64,56,66,60,54,95,87,68,30.37,30.13,7,1,12,0.01
2013-8-25,72,60,48,63,56,46,95,84,66,30.46,30.35,11,1,11,0.00
2013-8-26,76,62,50,66,57,48,94,85,56,30.43,30.22,4,0,8,0.02
2013-8-27,79,64,50,69,59,49,95,84,57,30.25,30.11,9,0,12,0.07
2013-8-28,82,68,57,70,63,55,94,84,52,30.15,30.02,6,0,9,0.01
2013-8-29,83,71,61,71,66,59,94,84,61,30.04,29.98,10,1,13,0.08
2013-8-30,76,69,63,69,66,61,95,90,77,30.07,29.99,7,1,13,0.08
2013-8-31,80,70,61,71,66,59,94,87,64,30.02,29.93,4,0,8,0.05
2013-9-1,81,70,60,70,65,58,95,84,63,29.97,29.87,8,1,14,0.09
2013-9-2,81,70,60,70,65,58,95,84,60,29.97,29.87,5,0,9,0.01
2013-9-3,80,68,59,66,62,57,95,83,54,30.06,29.91,8,1,12,0.30
2013-9-4,78,65,54,68,61,52,95,86,65,30.19,30.06,6,1,11,0.02
2013-9-5,80,67,56,69,62,54,95,84,50,30.20,30.13,6,0,7,0.05
2013-9-6,76,63,52,65,58,51,95,84,61,30.24,30.15,7,1,11,0.07
2013-9-7,77,64,54,67,60,53,95,85,56,30.20,30.07,4,1,11,0.06
2013-9-8,78,66,54,68,60,52,95,83,57,30.10,30.02,4,0,8,0.08
2013-9-9,79,67,55,67,61,53,95,84,60,30.22,30.10,10,1,13,0.00
2013-9-10,79,67,56,67,62,54,94,84,61,30.31,30.22,6,1,11,0.07
2013-9-11,78,67,55,69,62,53,95,86,65,30.31,30.18,4,0,11,0.03
2013-9-12,78,68,61,69,63,59,93,85,64,30.18,29.93,7,1,16,0.24
2013-9-13,73,65,54,62,57,51,94,76,47,29.95,29.87,6,1,16,0.06
2013-9-14,70,56,45,56,50,43,95,82,57,30.22,29.95,6,1,10,0.06
2013-9-15,72,58,48,61,54,46,95,85,60,30.29,30.22,8,1,11,0.06
2013-9-16,78,63,50,64,56,48,95,81,42,30.26,30.16,5,1,11,0.00
2013-9-17,64,61,57,61,56,53,95,86,72,30.31,30.21,9,1,11,0.00
2013-9-18,67,60,56,60,56,52,94,87,72,30.33,30.22,6,0,7,0.01
2013-9-19,75,64,54,65,60,52,95,88,61,30.25,30.16,6,1,9,0.14
2013-9-20,77,64,53,67,59,51,94,85,56,30.17,29.99,10,1,10,0.01
2013-9-21,65,62,55,63,60,54,95,93,90,30.02,29.74,13,2,17,1.69
2013-9-22,73,60,47,62,55,46,95,85,46,29.98,29.81,7,1,9,0.01
2013-9-23,69,59,50,59,55,49,95,87,70,30.12,29.98,6,1,8,0.00
2013-9-24,67,58,49,61,56,47,95,91,79,30.14,30.01,5,0,8,0.07
2013-9-25,60,58,56,59,57,54,95,94,93,30.01,29.90,3,0,5,1.40
2013-9-26,70,60,53,63,57,51,95,90,71,30.11,29.95,6,1,9,0.00
2013-9-27,71,58,45,61,53,43,94,85,61,30.25,30.11,7,1,10,0.01
2013-9-28,66,58,50,58,54,48,95,87,69,30.29,30.20,8,1,10,0.08
2013-9-29,66,56,46,57,52,45,95,87,71,30.24,30.11,4,1,8,0.06
2013-9-30,66,57,47,58,53,45,95,88,73,30.17,30.09,4,0,8,0.00
2013-10-1,73,58,45,60,52,43,94,83,54,30.25,30.15,7,1,11,0.05
2013-10-2,74,59,46,62,54,44,95,84,57,30.27,30.18,4,0,8,0.00
2013-10-3,74,60,52,62,56,50,94,86,62,30.25,30.16,7,1,9,0.07
2013-10-4,75,60,48,64,55,46,94,86,56,30.26,30.18,7,0,9,0.03
2013-10-5,77,61,48,65,56,46,94,84,57,30.25,30.13,8,1,9,0.07
2013-10-6,71,61,49,63,57,48,93,86,72,30.16,29.96,6,1,12,0.22
2013-10-7,73,63,48,63,58,46,94,86,56,30.04,29.87,5,1,15,1.16
2013-10-8,65,54,44,53,48,43,95,82,53,30.27,30.04,7,1,11,0.01
2013-10-9,67,53,40,56,48,39,95,83,59,30.30,30.20,6,1,10,0.00
2013-10-10,71,54,40,56,48,39,95,82,55,30.24,30.11,6,1,11,0.00
2013-10-11,73,55,42,56,48,40,95,80,42,30.15,30.06,5,0,14,0.02
2013-10-12,71,56,43,61,51,41,95,84,59,30.21,30.11,4,0,8,0.02
2013-10-13,69,60,50,60,55,48,94,86,69,30.28,30.20,5,0,8,0.06
2013-10-14,65,60,56,59,56,54,94,88,74,30.27,30.18,8,1,8,0.01
2013-10-15,65,58,53,58,55,51,94,89,75,30.24,30.11,9,1,9,0.03
2013-10-16,65,56,48,59,53,45,94,88,74,30.14,30.03,3,0,7,0.00
2013-10-17,65,59,52,62,57,50,94,92,88,30.06,29.91,3,0,7,0.25
2013-10-18,65,53,42,55,49,40,95,87,53,30.08,29.98,5,1,10,0.03
2013-10-19,61,51,42,51,44,32,95,80,34,30.07,29.96,6,0,12,0.01
2013-10-20,60,45,32,48,39,30,95,82,42,30.22,30.04,8,1,10,0.01
2013-10-21,61,46,31,51,42,29,95,86,61,30.27,30.14,8,1,13,0.04
2013-10-22,65,53,42,51,47,41,94,81,50,30.16,29.91,7,0,13,0.06
2013-10-23,50,44,30,44,35,27,93,72,52,30.13,29.83,14,3,21,0.00
2013-10-24,50,40,28,36,32,26,94,75,53,30.28,30.14,13,1,13,0.03
2013-10-25,50,37,26,33,25,16,94,68,28,30.47,30.29,7,1,16,0.00
2013-10-26,54,37,21,42,28,20,95,74,28,30.47,30.24,11,1,17,0.03
2013-10-27,59,51,41,50,45,40,93,80,67,30.24,30.17,12,2,16,0.01
2013-10-28,60,52,44,52,48,42,94,87,62,30.35,30.21,7,1,13,0.07
2013-10-29,66,50,39,52,44,38,94,82,48,30.43,30.34,6,1,10,0.00
2013-10-30,69,56,44,58,50,42,93,83,58,30.40,30.26,8,1,12,0.00
2013-10-31,62,57,49,58,53,46,92,87,76,30.28,29.95,13,2,29,0.23
2013-11-1,70,58,42,59,47,28,94,72,21,29.96,29.72,19,3,30,0.55
2013-11-2,57,47,37,43,38,34,94,73,48,30.11,29.82,13,2,21,0.00
2013-11-3,56,40,30,38,33,28,94,79,42,30.49,30.10,7,1,9,0.00
2013-11-4,51,36,27,36,30,25,95,81,48,30.64,30.49,8,1,12,0.01
2013-11-5,59,41,29,39,31,19,94,74,23,30.65,30.53,5,1,10,0.00
2013-11-6,60,51,40,53,48,36,93,90,78,30.56,30.24,8,1,13,0.26
2013-11-7,60,51,38,55,42,21,93,73,33,30.24,30.07,12,2,20,0.06
2013-11-8,54,38,26,29,23,15,93,60,22,30.45,30.18,6,1,11,0.00
2013-11-9,53,39,24,36,29,22,94,71,40,30.51,30.38,7,0,11,0.00
2013-11-10,63,47,34,33,30,26,89,55,26,30.38,30.28,8,1,17,0.00
2013-11-11,59,40,26,36,31,24,94,75,34,30.42,30.30,4,1,10,0.00
2013-11-12,53,40,21,37,26,10,94,60,36,30.49,30.20,12,3,23,0.00
2013-11-13,47,28,14,20,12,-2,89,60,19,30.66,30.49,4,1,9,0.00
2013-11-14,55,33,18,28,20,11,93,68,18,30.64,30.48,5,0,10,0.00
2013-11-15,49,40,22,47,37,20,93,89,82,30.51,30.34,4,0,6,0.49
2013-11-16,59,52,47,53,49,45,94,91,80,30.34,30.25,6,1,9,0.04
2013-11-17,58,55,53,55,53,51,93,92,90,30.28,29.98,8,1,11,0.66
2013-11-18,62,54,41,55,40,27,93,63,30,30.06,29.93,14,3,22,0.00
2013-11-19,52,40,29,32,28,22,90,64,34,30.33,30.04,6,1,14,0.00
2013-11-20,48,38,29,32,28,25,86,68,43,30.53,30.33,9,2,12,0.00
2013-11-21,51,46,39,49,42,31,93,87,72,30.57,30.46,1,0,2,0.41
2013-11-22,62,55,50,58,52,47,93,90,84,30.48,30.19,5,0,10,0.14
2013-11-23,54,47,31,53,36,9,93,71,29,30.23,30.13,15,3,22,0.00
2013-11-24,41,29,20,22,10,-6,91,52,15,30.61,30.22,7,2,22,0.00
2013-11-25,41,30,19,29,16,-5,92,62,14,30.63,30.43,5,1,9,0.01
2013-11-26,47,42,31,45,39,29,93,92,91,30.41,29.73,5,0,8,4.15
2013-11-27,46,30,19,44,26,15,94,84,71,30.27,29.67,17,4,34,0.12
2013-11-28,52,29,14,30,20,8,94,76,18,30.62,30.28,4,0,8,0.04
2013-11-29,56,33,21,37,26,20,95,79,37,30.71,30.59,6,0,9,0.01
2013-11-30,48,30,21,31,25,19,94,81,48,30.71,30.50,4,0,8,0.00
2013-12-1,56,37,28,40,31,26,94,80,34,30.50,30.15,7,1,10,0.00
2013-12-2,52,39,27,43,36,25,94,88,70,30.14,29.94,5,0,7,0.01
2013-12-3,50,45,40,48,43,38,93,92,91,30.04,29.95,4,0,11,0.07
2013-12-4,62,53,45,55,50,42,93,90,75,30.15,30.03,8,1,15,0.02
2013-12-5,63,58,52,61,55,49,93,91,88,30.16,30.05,7,1,11,1.34
2013-12-6,64,62,57,61,60,54,93,92,89,30.09,29.99,15,4,26,1.94
2013-12-7,60,52,42,55,49,40,93,89,76,30.36,30.03,10,1,12,0.01
2013-12-8,48,40,37,46,38,35,94,93,91,30.39,30.29,6,1,11,0.88
2013-12-9,58,51,43,55,49,41,94,92,87,30.29,30.08,8,1,18,1.36
2013-12-10,54,43,27,53,35,16,94,74,40,30.36,29.94,13,3,23,0.32
2013-12-11,50,32,18,27,19,10,94,64,21,30.54,30.36,6,1,13,0.00
2013-12-12,44,32,21,22,13,-4,90,51,16,30.50,30.39,13,1,15,0.00
2013-12-13,50,32,19,28,22,16,94,71,28,30.50,30.39,8,0,9,0.00
2013-12-14,47,40,33,44,37,28,93,88,65,30.39,29.89,11,1,14,1.03
2013-12-15,46,38,32,43,31,25,94,76,54,30.20,29.84,12,3,18,0.01
2013-12-16,50,38,29,29,26,22,90,66,36,30.30,30.19,11,2,20,0.00
2013-12-17,54,41,26,33,28,20,94,66,37,30.29,30.12,28,4,28,0.00
2013-12-18,49,35,23,24,13,-3,86,48,12,30.44,30.15,8,2,18,0.00
2013-12-19,61,37,22,35,25,20,94,69,24,30.50,30.38,7,1,14,0.00
2013-12-20,58,43,28,50,34,23,93,75,28,30.38,30.27,7,1,16,0.00
2013-12-21,62,58,53,60,55,51,93,92,90,30.27,30.02,12,4,32,0.87
2013-12-22,63,57,53,60,54,51,93,91,87,30.09,29.99,15,2,36,3.51
2013-12-23,54,48,36,51,45,33,93,88,76,30.23,30.06,5,1,10,0.20
2013-12-24,36,30,19,33,22,12,94,74,39,30.50,30.22,7,2,23,0.00
2013-12-25,37,25,17,25,19,15,94,80,50,30.61,30.49,5,1,8,0.00
2013-12-26,48,31,20,26,21,18,94,72,32,30.52,30.41,10,1,16,0.00
2013-12-27,52,31,19,30,23,18,94,78,32,30.60,30.50,4,0,6,0.00
2013-12-28,42,32,22,38,30,20,94,92,76,30.59,30.21,5,0,11,0.37
2013-12-29,52,44,37,45,39,31,93,84,68,30.20,29.93,10,2,19,1.24
2013-12-30,46,41,36,36,34,29,89,78,59,30.22,30.05,11,1,16,0.00
2013-12-31,43,33,24,29,22,16,93,64,34,30.48,30.20,12,2,17,0.00
2014-1-1,44,31,23,29,25,20,94,80,42,30.52,30.29,5,0,9,0.00
2014-1-2,47,35,17,45,32,11,93,89,75,30.29,29.79,16,3,31,0.17